Terminal Aerodrome Forecast
Issued by NWS Central Illinois

Home | Current Version | Previous Version | Text Only | Print | Product List | Glossary On
Versions: 1 2 3 4 5 6 7 8 9 10 11 12 13 14 15 16 17 18 19 20 21 22 23
000
FTUS43 KILX 171500 AAA
TAFSPI
TAF AMD
KSPI 171539Z 1716/1812 19004KT P6SM SCT050 OVC100
     FM171900 VRB04KT P6SM BKN050
     FM180000 07003KT P6SM SKC
      TEMPO 1809/1812 4SM BR=

USA.gov is the U.S. government's official web portal to all federal, state and local government web resources and services.